Time;durP1;ratioP1;P1;durP2;ratioP2;P2;SDS_P1;SDS_P2;PMS_P1;PMS_P2;Temp;Humidity;BMP_temperature;BMP_pressure;BME280_temperature;BME280_humidity;BME280_pressure;Samples;Min_cycle;Max_cycle;Signal;HPM_P1;HPM_P2
2022/05/08 00:01:35;;;;;;;7.00;5.10;;;17.70;59.20;;;18.19;42.34;99136.31;4973015;28;113341;-92
2022/05/08 00:04:03;;;;;;;5.27;4.77;;;17.70;59.30;;;18.15;42.52;99144.59;4979157;28;123041;-93
2022/05/08 00:06:30;;;;;;;5.60;5.10;;;17.60;59.30;;;18.14;42.40;99145.78;4967280;28;123417;-93
2022/05/08 00:08:56;;;;;;;5.30;4.70;;;17.60;59.50;;;18.10;42.58;99148.47;4966467;28;114803;-94
2022/05/08 00:12:05;;;;;;;5.93;4.00;;;17.60;59.70;;;18.05;42.75;99139.50;4971877;28;114496;-94
2022/05/08 00:14:32;;;;;;;5.63;4.43;;;17.50;59.80;;;18.01;42.91;99139.41;4980602;28;123040;-92
2022/05/08 00:17:00;;;;;;;7.23;4.60;;;17.50;60.00;;;17.98;42.83;99136.53;4958031;28;122874;-93
2022/05/08 00:19:27;;;;;;;5.60;5.00;;;17.40;60.10;;;17.94;43.22;99141.16;4969651;28;114192;-93
2022/05/08 00:22:52;;;;;;;7.03;4.80;;;17.40;60.40;;;17.87;43.31;99139.81;4991052;28;114195;-94
2022/05/08 00:25:20;;;;;;;7.23;4.60;;;17.40;60.70;;;17.85;43.51;99141.31;4995865;28;123181;-93
2022/05/08 00:27:46;;;;;;;5.87;4.50;;;17.30;60.80;;;17.81;43.58;99138.41;4999383;28;123473;-84
2022/05/08 00:30:14;;;;;;;5.30;4.53;;;17.30;61.10;;;17.78;43.72;99130.69;5021377;28;115012;-93
2022/05/08 00:32:40;;;;;;;7.07;5.63;;;17.30;61.20;;;17.76;43.89;99132.19;5002365;28;113867;-92
2022/05/08 00:35:11;;;;;;;4.77;4.33;;;17.20;61.40;;;17.74;43.99;99140.16;4979443;28;122231;-92
2022/05/08 00:37:39;;;;;;;5.20;4.70;;;17.20;61.60;;;17.70;43.98;99133.63;5004587;28;123706;-91
2022/05/08 00:40:06;;;;;;;6.30;4.83;;;17.20;61.80;;;17.66;44.13;99137.13;4968079;28;114225;-91
2022/05/08 00:42:33;;;;;;;5.43;4.93;;;17.10;61.90;;;17.62;44.27;99133.41;4972818;28;112807;-91
2022/05/08 00:44:59;;;;;;;8.70;4.33;;;17.10;62.10;;;17.61;44.35;99137.34;4970783;28;123918;-92
2022/05/08 00:47:26;;;;;;;5.77;4.70;;;17.10;62.30;;;17.58;44.27;99143.66;4983656;28;124559;-96
2022/05/08 00:49:54;;;;;;;5.80;4.57;;;17.00;62.40;;;17.54;44.50;99139.91;4967913;28;114684;-93
2022/05/08 00:52:21;;;;;;;5.00;4.30;;;17.00;62.60;;;17.51;44.70;99149.00;4970651;28;114169;-95
2022/05/08 00:54:47;;;;;;;5.50;4.90;;;17.00;62.80;;;17.48;44.76;99149.72;4990739;28;124563;-94
2022/05/08 00:57:14;;;;;;;5.40;4.30;;;16.90;62.90;;;17.44;44.59;99144.00;4965308;28;123092;-93
2022/05/08 00:59:40;;;;;;;5.30;4.43;;;16.90;63.10;;;17.42;44.82;99151.13;4967708;28;115256;-94
2022/05/08 01:02:07;;;;;;;5.67;4.80;;;16.90;63.30;;;17.36;45.13;99158.91;4966000;28;114667;-93
2022/05/08 01:04:33;;;;;;;6.07;5.47;;;16.80;63.50;;;17.25;45.68;99151.34;4963364;28;124305;-91
2022/05/08 01:07:00;;;;;;;6.60;5.70;;;16.70;64.20;;;17.15;45.60;99149.84;4968501;28;123630;-91
2022/05/08 01:09:27;;;;;;;5.90;5.30;;;16.70;64.20;;;17.11;45.46;99148.88;4972271;28;114819;-92
2022/05/08 01:11:54;;;;;;;8.40;5.43;;;16.60;64.30;;;17.09;45.61;99143.66;4968894;28;113745;-91
2022/05/08 01:14:22;;;;;;;7.83;5.17;;;16.60;64.50;;;17.07;45.66;99145.97;4967129;28;124027;-92
2022/05/08 01:16:48;;;;;;;9.23;6.20;;;16.50;64.60;;;17.04;45.98;99148.66;4968220;28;122834;-93
2022/05/08 01:19:16;;;;;;;6.20;5.60;;;16.50;64.90;;;17.02;45.93;99149.00;4958196;28;114220;-92
2022/05/08 01:21:43;;;;;;;7.50;6.73;;;16.50;65.10;;;16.99;46.22;99144.09;4967056;28;114636;-92
2022/05/08 01:24:15;;;;;;;5.77;5.13;;;16.40;65.30;;;16.98;46.02;99142.50;4969541;28;124053;-93
2022/05/08 01:26:42;;;;;;;6.37;5.60;;;16.40;65.50;;;16.96;46.29;99142.00;4968197;28;123177;-91
2022/05/08 01:29:08;;;;;;;5.47;4.90;;;16.40;65.70;;;16.95;46.37;99145.94;4963669;28;113412;-93
2022/05/08 01:31:35;;;;;;;6.23;5.07;;;16.40;65.90;;;16.93;46.46;99134.34;4982054;28;113125;-93
2022/05/08 01:34:01;;;;;;;6.00;5.40;;;16.40;66.10;;;16.91;46.71;99134.66;4967881;28;124129;-95
2022/05/08 01:36:28;;;;;;;6.10;5.50;;;16.30;66.20;;;16.89;46.57;99136.19;4997246;28;124194;-92
2022/05/08 01:38:56;;;;;;;6.90;5.43;;;16.30;66.40;;;16.85;46.68;99127.69;4960574;28;114704;-92
2022/05/08 01:41:23;;;;;;;5.30;4.40;;;16.30;66.60;;;16.82;46.76;99128.38;4969597;28;113141;-92
2022/05/08 01:43:49;;;;;;;6.43;5.30;;;16.30;66.80;;;16.79;47.13;99131.84;4993936;28;123979;-90
2022/05/08 01:46:16;;;;;;;6.83;4.87;;;16.20;66.80;;;16.76;46.99;99144.50;4950605;28;124012;-92
2022/05/08 01:48:42;;;;;;;5.70;5.10;;;16.20;67.10;;;16.75;46.88;99137.28;4983110;28;115059;-93
2022/05/08 01:51:12;;;;;;;5.90;5.33;;;16.20;67.30;;;16.74;46.99;99144.03;4967805;28;114772;-94
2022/05/08 01:53:39;;;;;;;5.90;5.30;;;16.20;67.50;;;16.72;47.09;99137.97;4968883;28;123330;-92
2022/05/08 01:56:07;;;;;;;6.77;5.40;;;16.10;67.60;;;16.71;47.39;99143.88;4962451;28;123839;-94
2022/05/08 01:58:34;;;;;;;5.90;5.30;;;16.10;67.80;;;16.70;47.26;99134.72;4971004;28;114302;-91
2022/05/08 02:01:08;;;;;;;4.93;4.43;;;16.10;67.90;;;16.70;47.41;99143.09;4965772;28;112376;-94
2022/05/08 02:03:34;;;;;;;5.23;4.73;;;16.10;68.10;;;16.66;47.53;99131.00;4967082;28;124154;-93
2022/05/08 02:06:01;;;;;;;6.20;5.53;;;16.10;68.20;;;16.65;47.52;99140.50;4985198;28;124495;-92
2022/05/08 02:08:27;;;;;;;8.27;6.10;;;16.00;68.30;;;16.62;47.41;99135.63;4968288;28;113568;-93
2022/05/08 02:10:54;;;;;;;7.00;5.50;;;16.00;68.50;;;16.59;47.46;99136.31;4971567;28;113486;-92
2022/05/08 02:13:21;;;;;;;12.00;6.53;;;16.80;69.40;;;16.57;47.67;99127.47;4986699;28;124555;-94
2022/05/08 02:15:48;;;;;;;7.30;5.70;;;16.00;68.90;;;16.56;47.61;99131.44;4970289;28;123589;-93
2022/05/08 02:18:14;;;;;;;5.87;5.00;;;16.00;69.00;;;16.54;47.69;99133.75;4971033;28;115050;-92
2022/05/08 02:20:41;;;;;;;6.13;5.40;;;15.90;69.10;;;16.51;47.68;99128.84;4971124;28;113296;-92
2022/05/08 02:23:08;;;;;;;6.63;5.73;;;15.90;69.30;;;16.49;47.65;99137.56;4985222;28;124071;-92
2022/05/08 02:25:36;;;;;;;7.03;5.90;;;15.90;69.50;;;16.49;48.09;99128.38;4984325;28;123624;-93
2022/05/08 02:28:05;;;;;;;7.97;5.73;;;15.90;69.60;;;16.47;48.00;99133.47;4962150;28;113345;-92
2022/05/08 02:30:34;;;;;;;6.60;5.50;;;15.80;69.70;;;16.45;48.08;99127.44;4970681;28;114037;-95
2022/05/08 02:33:02;;;;;;;6.33;5.73;;;15.80;69.90;;;16.43;47.97;99132.53;4969441;28;123227;-94
2022/05/08 02:35:29;;;;;;;5.47;4.93;;;15.90;70.20;;;16.41;48.23;99132.88;4985057;28;124270;-96
2022/05/08 02:37:56;;;;;;;6.10;4.93;;;15.80;70.30;;;16.38;48.30;99130.78;4966958;28;115281;-93
2022/05/08 02:40:23;;;;;;;6.50;5.90;;;15.80;70.40;;;16.37;48.45;99134.75;5001516;28;115273;-94
2022/05/08 02:42:50;;;;;;;6.53;5.33;;;15.80;70.60;;;16.34;48.35;99139.03;4970167;28;124630;-94
2022/05/08 02:45:17;;;;;;;5.30;4.80;;;15.70;70.60;;;16.31;48.53;99134.13;4967954;28;123936;-94
2022/05/08 02:47:44;;;;;;;6.63;5.50;;;15.70;70.80;;;16.30;48.46;99140.84;4971536;28;113457;-94
2022/05/08 02:50:13;;;;;;;6.43;5.33;;;15.70;71.00;;;16.27;48.58;99138.75;4997150;28;113124;-93
2022/05/08 02:52:41;;;;;;;6.47;5.77;;;15.70;71.10;;;16.24;48.63;99133.88;4953046;28;122295;-93
2022/05/08 03:00:42;;;;;;;5.70;5.20;;;15.50;71.60;;;16.08;49.05;99130.06;4980775;28;114716;-93
2022/05/08 03:03:10;;;;;;;6.20;5.60;;;15.50;71.80;;;16.07;49.11;99134.03;4973604;28;124161;-95
2022/05/08 03:05:38;;;;;;;5.30;4.80;;;15.50;72.00;;;16.05;49.25;99133.56;4967800;28;123649;-93
2022/05/08 03:08:05;;;;;;;5.10;4.60;;;15.50;72.30;;;16.05;49.14;99133.56;4955590;28;113305;-93
2022/05/08 03:13:17;;;;;;;6.93;5.60;;;15.50;72.60;;;16.00;49.41;99144.91;4970394;28;125172;-93
2022/05/08 03:15:43;;;;;;;5.93;5.30;;;15.40;72.70;;;15.98;49.49;99144.41;4968171;28;122993;-94
2022/05/08 03:18:11;;;;;;;6.30;5.70;;;15.40;72.90;;;15.96;49.43;99152.28;4988748;28;113784;-95
2022/05/08 03:20:37;;;;;;;5.60;5.10;;;15.40;73.10;;;15.95;49.62;99153.47;4960286;28;112771;-93
2022/05/08 03:23:04;;;;;;;5.93;5.33;;;15.30;73.10;;;15.93;49.90;99159.38;4969407;28;123604;-94
2022/05/08 03:25:31;;;;;;;5.50;4.90;;;15.30;73.90;;;15.90;49.53;99158.09;4968061;28;123823;-94
2022/05/08 03:27:57;;;;;;;7.00;6.30;;;15.30;73.40;;;15.87;49.78;99158.75;4981593;28;115198;-92
2022/05/08 03:30:25;;;;;;;6.57;5.47;;;15.30;73.80;;;15.81;49.98;99157.31;4981323;28;114741;-94
2022/05/08 03:32:53;;;;;;;6.20;5.70;;;15.20;73.80;;;15.77;50.05;99159.19;4969538;28;124365;-94
2022/05/08 03:39:02;;;;;;;8.00;7.20;;;15.10;74.30;;;15.61;50.70;99160.91;4959259;28;115038;-93
2022/05/08 03:41:30;;;;;;;6.70;5.97;;;15.10;74.70;;;15.56;50.71;99155.50;4956854;28;113374;-93
2022/05/08 03:43:56;;;;;;;7.17;6.20;;;15.00;74.90;;;15.55;50.70;99159.44;4983896;28;122252;-93
2022/05/08 03:46:23;;;;;;;7.33;6.30;;;15.00;75.10;;;15.54;50.94;99155.84;4952612;28;124506;-93
2022/05/08 03:48:49;;;;;;;7.17;6.10;;;15.00;75.30;;;15.55;50.78;99151.06;4955807;28;113534;-95
2022/05/08 03:51:16;;;;;;;6.97;6.27;;;15.00;75.60;;;15.55;50.88;99165.81;4970028;28;114081;-94
2022/05/08 03:53:42;;;;;;;6.10;5.50;;;15.00;75.80;;;15.53;50.96;99157.00;4970767;28;122990;-94
2022/05/08 03:56:09;;;;;;;6.33;5.73;;;14.90;75.80;;;15.53;51.11;99156.16;4985737;28;123093;-92
2022/05/08 03:58:36;;;;;;;7.87;5.93;;;14.90;75.90;;;15.51;51.09;99161.28;4970903;28;115221;-93
2022/05/08 04:01:03;;;;;;;5.60;4.90;;;14.90;76.10;;;15.51;51.23;99161.28;4984483;28;112580;-94
2022/05/08 04:03:29;;;;;;;6.73;6.03;;;14.90;76.30;;;15.49;51.09;99160.78;4984222;28;121908;-93
2022/05/08 04:05:55;;;;;;;5.90;5.30;;;14.90;76.50;;;15.50;51.34;99163.25;4980277;28;123808;-93
2022/05/08 04:08:22;;;;;;;7.33;6.60;;;14.90;76.60;;;15.48;51.27;99164.75;4960831;28;114499;-94
2022/05/08 04:10:48;;;;;;;7.83;6.23;;;14.90;76.90;;;15.48;51.22;99159.16;4957990;28;114125;-94
2022/05/08 04:13:17;;;;;;;7.43;6.60;;;14.90;77.00;;;15.48;51.43;99164.75;4967679;28;123237;-94
2022/05/08 04:18:29;;;;;;;6.90;6.20;;;14.90;77.40;;;15.44;51.33;99170.94;4970502;28;115755;-93
2022/05/08 04:20:55;;;;;;;6.40;5.80;;;14.80;77.50;;;15.44;51.43;99165.38;4968203;28;113937;-93
2022/05/08 04:26:07;;;;;;;7.60;6.83;;;14.80;77.80;;;15.43;51.91;99169.34;4960214;28;124238;-93
2022/05/08 04:28:33;;;;;;;6.87;6.27;;;14.80;77.90;;;15.41;51.75;99171.63;4966655;28;114357;-93
2022/05/08 04:31:00;;;;;;;7.00;6.30;;;14.80;78.80;;;15.42;51.76;99173.28;4966927;28;114173;-94
2022/05/08 04:33:26;;;;;;;9.50;6.37;;;14.80;78.30;;;15.43;51.98;99162.94;4967927;28;124139;-91
2022/05/08 04:35:52;;;;;;;7.10;6.27;;;14.80;78.50;;;15.41;52.00;99170.81;4968181;28;123949;-96
2022/05/08 04:38:19;;;;;;;6.50;5.77;;;14.80;78.70;;;15.42;52.00;99166.88;4968106;28;113610;-95
2022/05/08 04:40:47;;;;;;;9.60;6.93;;;14.80;78.80;;;15.40;52.03;99181.16;5000409;28;113159;-95
2022/05/08 04:43:13;;;;;;;8.07;6.80;;;14.80;78.90;;;15.40;52.04;99183.94;4998782;28;123657;-95
2022/05/08 04:45:40;;;;;;;7.57;6.80;;;14.80;79.10;;;15.38;52.07;99183.44;4993358;28;124177;-93
2022/05/08 04:48:07;;;;;;;12.10;6.00;;;14.80;79.20;;;15.36;52.09;99188.53;4961868;28;114100;-95
2022/05/08 04:50:34;;;;;;;7.80;6.17;;;14.70;79.20;;;15.36;52.23;99196.06;4971028;28;113819;-94
2022/05/08 04:53:00;;;;;;;7.70;6.97;;;14.70;79.30;;;15.37;52.22;99200.50;4995667;28;124564;-94
2022/05/08 04:55:27;;;;;;;7.23;6.53;;;14.70;79.50;;;15.34;52.27;99199.19;4969184;28;124047;-93
2022/05/08 04:57:53;;;;;;;9.57;8.60;;;14.70;79.70;;;15.31;52.44;99199.84;4968399;28;113690;-95
2022/05/08 05:00:21;;;;;;;8.60;7.70;;;14.70;80.00;;;15.24;52.40;99202.34;4967722;28;113911;-93
2022/05/08 05:02:49;;;;;;;8.10;7.30;;;14.60;80.20;;;15.17;52.65;99207.59;4991602;28;123608;-93
2022/05/08 05:05:16;;;;;;;8.93;8.00;;;14.60;80.20;;;15.13;52.89;99209.44;4997197;28;123056;-92
2022/05/08 05:07:43;;;;;;;8.93;7.53;;;14.50;80.50;;;15.08;53.04;99212.41;4998747;28;114269;-94
2022/05/08 05:10:11;;;;;;;10.50;8.83;;;14.50;80.60;;;15.04;52.82;99215.00;4986433;28;114783;-94
2022/05/08 05:12:39;;;;;;;8.77;7.90;;;14.40;80.80;;;15.02;53.14;99212.56;4977328;28;124509;-93
2022/05/08 05:15:09;;;;;;;8.47;7.47;;;14.40;81.00;;;15.00;53.29;99206.50;4967540;28;123803;-93
2022/05/08 05:17:36;;;;;;;9.03;7.90;;;14.40;81.20;;;14.98;53.24;99208.81;4972065;28;113076;-92
2022/05/08 05:20:04;;;;;;;12.30;8.20;;;14.40;81.30;;;14.95;53.34;99212.25;4971144;28;113926;-92
2022/05/08 05:22:30;;;;;;;9.07;7.90;;;14.40;81.50;;;14.94;53.27;99216.19;4969348;28;123510;-92
2022/05/08 05:24:58;;;;;;;8.47;7.67;;;14.30;81.50;;;14.94;53.43;99229.28;4973551;28;123552;-92
2022/05/08 05:27:25;;;;;;;10.63;8.37;;;14.30;81.70;;;14.91;53.77;99219.66;4965127;28;114243;-93
2022/05/08 05:29:52;;;;;;;9.00;8.10;;;14.30;81.90;;;14.90;53.60;99229.13;4963983;28;113506;-94
2022/05/08 05:32:19;;;;;;;9.27;8.37;;;14.30;82.00;;;14.88;53.86;99231.41;4955544;28;123272;-94
2022/05/08 05:34:45;;;;;;;10.47;8.50;;;14.30;82.20;;;14.88;53.88;99225.84;4959523;28;123719;-94
2022/05/08 05:37:13;;;;;;;8.80;8.00;;;14.30;82.30;;;14.88;53.74;99231.41;4967985;28;114237;-93
2022/05/08 05:39:58;;;;;;;8.97;7.70;;;14.30;82.40;;;14.89;53.71;99224.72;4961647;28;113158;-96
2022/05/08 05:42:25;;;;;;;8.60;7.60;;;14.30;82.60;;;14.91;53.76;99225.22;4966223;28;123206;-96
2022/05/08 05:44:51;;;;;;;10.50;8.50;;;14.30;82.70;;;14.92;54.01;99226.84;4979499;28;122043;-94
2022/05/08 05:50:03;;;;;;;9.90;8.90;;;14.30;83.00;;;14.82;54.38;99232.75;4970013;28;113601;-95
2022/05/08 05:52:29;;;;;;;8.70;7.10;;;14.30;83.00;;;14.83;54.12;99219.63;4965696;28;124052;-94
2022/05/08 05:54:56;;;;;;;9.97;8.97;;;14.20;83.00;;;14.83;54.30;99223.25;4973683;28;125437;-94
2022/05/08 05:57:23;;;;;;;10.93;9.83;;;14.20;83.30;;;14.83;54.50;99234.41;4967339;28;114141;-95
2022/05/08 05:59:49;;;;;;;9.93;8.90;;;14.20;83.60;;;14.77;54.61;99235.69;4971661;28;115443;-93
2022/05/08 06:02:16;;;;;;;10.23;9.17;;;14.20;83.80;;;14.76;54.57;99240.44;4980298;28;123302;-94
2022/05/08 06:04:42;;;;;;;10.30;9.20;;;14.20;84.00;;;14.73;54.71;99237.50;4974270;28;121923;-93
2022/05/08 06:07:09;;;;;;;10.43;9.33;;;14.10;84.10;;;14.69;54.87;99244.88;4970181;28;114268;-94
2022/05/08 06:09:35;;;;;;;10.87;9.77;;;14.10;84.40;;;14.67;54.82;99242.44;4972639;28;113623;-94
2022/05/08 06:12:03;;;;;;;10.40;9.27;;;14.10;84.40;;;14.70;54.84;99249.31;4972629;28;123341;-94
2022/05/08 06:14:29;;;;;;;10.23;9.07;;;14.10;84.50;;;14.71;55.15;99248.97;4986106;28;123903;-93
2022/05/08 06:16:56;;;;;;;10.90;9.27;;;14.10;84.80;;;14.75;54.96;99251.91;4990619;28;113587;-93
2022/05/08 06:19:22;;;;;;;10.37;8.97;;;14.10;84.80;;;14.77;54.98;99249.59;4984465;28;115211;-94
2022/05/08 06:21:49;;;;;;;9.50;7.73;;;14.20;85.00;;;14.81;54.78;99247.81;4956171;28;124092;-93
2022/05/08 06:24:16;;;;;;;9.50;8.40;;;14.20;84.90;;;14.85;54.80;99251.53;4993891;28;124258;-93
2022/05/08 06:26:42;;;;;;;10.47;9.37;;;14.20;85.00;;;14.89;55.05;99255.31;4990926;28;114308;-94
2022/05/08 06:29:09;;;;;;;9.60;8.60;;;14.20;85.20;;;14.92;54.90;99257.44;4982177;28;114055;-93
2022/05/08 06:31:35;;;;;;;10.60;8.57;;;14.30;85.30;;;14.93;54.81;99266.59;4956034;28;123212;-93
2022/05/08 06:34:05;;;;;;;8.63;7.77;;;14.30;85.20;;;14.94;54.99;99262.69;4969650;28;123841;-95
2022/05/08 06:36:32;;;;;;;8.70;7.80;;;14.30;85.20;;;14.98;54.79;99258.06;4958453;28;114485;-93
2022/05/08 06:38:59;;;;;;;9.03;8.13;;;14.30;85.20;;;15.06;54.68;99259.22;4970218;28;114212;-93
2022/05/08 06:41:27;;;;;;;7.50;6.80;;;14.40;85.30;;;15.13;54.72;99265.09;4973926;28;124860;-93
2022/05/08 06:43:54;;;;;;;7.47;6.77;;;14.40;85.30;;;15.22;54.66;99263.09;4970599;28;124245;-93
2022/05/08 06:46:21;;;;;;;8.60;7.70;;;14.50;85.40;;;15.30;54.54;99270.59;4958040;28;114730;-93
2022/05/08 06:48:49;;;;;;;9.33;8.43;;;14.60;85.50;;;15.39;54.33;99268.63;4967453;28;115163;-94
2022/05/08 06:51:16;;;;;;;10.07;9.07;;;14.60;85.50;;;15.43;54.49;99263.19;4969650;28;124949;-95
2022/05/08 06:53:43;;;;;;;9.67;8.67;;;14.70;85.60;;;15.51;54.32;99267.09;4988083;28;121634;-93
2022/05/08 06:56:15;;;;;;;8.57;7.77;;;14.80;85.60;;;15.59;54.19;99266.25;4972722;28;114335;-93
2022/05/08 07:01:42;;;;;;;8.90;8.10;;;14.90;85.50;;;15.74;54.20;99267.66;4971604;28;124618;-94
2022/05/08 07:04:10;;;;;;;9.10;8.20;;;15.00;85.40;;;15.77;54.24;99267.84;4997776;28;122895;-92
2022/05/08 07:06:39;;;;;;;12.10;8.30;;;15.10;85.30;;;15.82;53.91;99264.81;4974935;28;113340;-94
2022/05/08 07:09:08;;;;;;;11.73;9.30;;;15.10;85.30;;;15.85;53.82;99271.69;5016587;28;114102;-93
2022/05/08 07:11:36;;;;;;;10.13;9.10;;;15.10;85.20;;;15.84;53.92;99273.69;4982459;28;124566;-94
2022/05/08 07:14:09;;;;;;;9.83;8.83;;;15.10;85.30;;;15.85;54.04;99263.34;4975505;28;124612;-94
2022/05/08 07:16:37;;;;;;;8.60;7.80;;;15.20;85.20;;;15.88;53.83;99271.88;4977273;28;114330;-92
2022/05/08 07:19:03;;;;;;;8.83;7.93;;;15.20;85.30;;;15.94;54.09;99271.69;5003355;28;113683;-92
2022/05/08 07:21:30;;;;;;;8.70;7.23;;;15.40;85.40;;;16.00;53.88;99273.09;4977545;28;123078;-93
2022/05/08 07:23:56;;;;;;;9.10;8.30;;;15.30;85.30;;;16.06;53.90;99272.56;4979261;28;123397;-94
2022/05/08 07:26:24;;;;;;;10.63;9.63;;;15.40;85.40;;;16.16;53.85;99273.34;4971767;28;114145;-92
2022/05/08 07:28:50;;;;;;;10.13;9.13;;;15.40;85.40;;;16.20;53.69;99279.84;4968687;28;113344;-95
2022/05/08 07:31:17;;;;;;;11.07;9.90;;;15.40;85.30;;;16.24;53.81;99275.25;4962507;28;123901;-94
2022/05/08 07:33:44;;;;;;;10.00;8.97;;;15.50;86.10;;;16.25;53.74;99277.69;4971196;28;123125;-95
2022/05/08 07:36:13;;;;;;;11.20;10.10;;;15.50;85.20;;;16.27;53.93;99280.97;4985288;28;115150;-96
2022/05/08 07:38:58;;;;;;;11.27;10.07;;;15.60;85.30;;;16.27;53.72;99280.97;4963175;28;115038;-95
2022/05/08 07:41:25;;;;;;;9.20;8.07;;;15.60;85.30;;;16.30;53.82;99285.03;4991439;28;123410;-94
2022/05/08 07:43:51;;;;;;;8.77;7.33;;;15.60;85.20;;;16.37;53.59;99281.72;4976728;28;124631;-93
2022/05/08 07:46:18;;;;;;;8.90;7.80;;;15.70;85.20;;;16.43;53.65;99283.16;4970233;28;113920;-93
2022/05/08 07:48:45;;;;;;;9.27;7.80;;;15.70;85.20;;;16.49;53.28;99282.59;4989809;28;114061;-93
2022/05/08 07:51:12;;;;;;;9.03;7.90;;;15.80;85.30;;;16.54;53.58;99282.41;4959517;28;123902;-93
2022/05/08 07:53:39;;;;;;;9.03;8.17;;;15.80;85.30;;;16.57;53.50;99289.25;4974087;28;123216;-96
2022/05/08 07:56:43;;;;;;;8.00;7.20;;;15.90;85.30;;;16.62;53.47;99280.69;4980579;28;113903;-94
2022/05/08 07:59:50;;;;;;;9.30;8.40;;;15.90;85.20;;;16.69;53.26;99291.31;4986352;28;114178;-95
2022/05/08 08:02:16;;;;;;;9.60;8.70;;;16.00;85.20;;;16.73;53.17;99287.47;4981133;28;123751;-92
2022/05/08 08:04:43;;;;;;;11.13;10.00;;;16.00;85.10;;;16.75;53.27;99290.75;4958067;28;122751;-94
2022/05/08 08:07:09;;;;;;;9.90;8.87;;;16.00;85.00;;;16.78;53.24;99287.31;4973002;28;113503;-94
2022/05/08 08:09:36;;;;;;;11.50;10.40;;;16.10;85.00;;;16.85;53.17;99289.56;4979645;28;113281;-90
2022/05/08 08:12:03;;;;;;;11.33;10.10;;;16.10;85.10;;;16.90;53.14;99292.16;4979900;28;123327;-95
2022/05/08 08:14:29;;;;;;;12.30;10.23;;;16.20;85.10;;;16.93;53.08;99287.84;4995909;28;121722;-94
2022/05/08 08:17:33;;;;;;;11.80;10.57;;;16.20;85.00;;;16.95;52.99;99291.09;4977649;28;114860;-96
2022/05/08 08:23:51;;;;;;;8.67;7.87;;;16.30;84.90;;;17.11;52.99;99291.28;4975818;28;124784;-95
2022/05/08 08:26:40;;;;;;;10.20;9.10;;;16.40;84.90;;;17.17;52.98;99293.53;5011387;28;123304;-96
2022/05/08 08:29:08;;;;;;;9.60;8.60;;;16.50;84.80;;;17.25;52.76;99302.97;4985843;28;115972;-96
2022/05/08 08:31:54;;;;;;;8.30;7.57;;;16.50;84.80;;;17.35;52.70;99301.69;4981297;28;112629;-92
2022/05/08 08:34:21;;;;;;;7.07;6.37;;;16.60;84.70;;;17.45;52.42;99301.25;4967955;28;123195;-93
2022/05/08 08:36:49;;;;;;;8.27;7.47;;;16.70;84.80;;;17.58;52.44;99304.91;4968811;28;123184;-91
2022/05/08 08:39:16;;;;;;;9.27;8.27;;;16.80;84.70;;;17.69;52.17;99296.88;4980525;28;113555;-95
2022/05/08 08:41:54;;;;;;;10.47;9.37;;;16.90;84.70;;;17.78;51.83;99294.78;4978485;28;112557;-92
2022/05/08 08:50:05;;;;;;;9.60;8.47;;;17.10;83.40;;;17.92;51.05;99292.50;4974181;28;115328;-94
2022/05/08 08:52:32;;;;;;;9.07;8.17;;;17.20;83.20;;;18.00;51.13;99294.38;4977387;28;113423;-96
2022/05/08 08:55:22;;;;;;;8.67;7.80;;;17.30;83.10;;;18.07;50.74;99288.97;4972343;28;123383;-95
2022/05/08 08:57:51;;;;;;;7.83;7.00;;;17.40;82.90;;;18.19;50.76;99290.97;4971607;28;125717;-95
2022/05/08 09:00:19;;;;;;;7.53;6.77;;;17.50;83.00;;;18.32;50.49;99300.97;5002844;28;113511;-95
2022/05/08 09:02:52;;;;;;;8.87;7.97;;;17.60;83.00;;;18.45;50.45;99290.56;4989830;28;112414;-95
2022/05/08 09:05:25;;;;;;;7.97;7.17;;;17.70;82.80;;;18.56;50.43;99290.88;4995056;28;123880;-95
2022/05/08 09:07:53;;;;;;;8.80;7.87;;;17.80;82.50;;;18.62;50.15;99289.50;4970368;28;123845;-94
2022/05/08 09:10:25;;;;;;;11.20;8.33;;;17.90;82.40;;;18.71;50.35;99294.94;4963981;28;114366;-95
2022/05/08 09:13:14;;;;;;;9.80;8.83;;;18.00;82.40;;;18.77;50.08;99293.53;4983148;28;113249;-93
2022/05/08 09:16:19;;;;;;;8.43;7.33;;;18.10;82.20;;;18.87;50.17;99293.03;4987540;28;123675;-94
2022/05/08 09:23:10;;;;;;;7.53;6.83;;;18.30;81.80;;;19.07;49.58;99301.59;4984160;28;115575;-96
2022/05/08 09:25:59;;;;;;;7.10;6.40;;;18.40;81.70;;;19.18;49.42;99285.88;4977944;28;115442;-95
2022/05/08 09:28:44;;;;;;;7.50;6.70;;;18.50;81.40;;;19.28;49.27;99296.59;4990899;28;124043;-94
2022/05/08 09:31:17;;;;;;;10.50;7.10;;;18.60;81.20;;;19.39;48.97;99291.25;4989243;28;124659;-95
2022/05/08 09:33:53;;;;;;;7.60;6.90;;;18.70;80.80;;;19.46;48.45;99288.66;4991960;28;115062;-96
2022/05/08 09:36:39;;;;;;;10.97;8.60;;;18.80;80.40;;;19.51;48.24;99277.19;4984754;28;113771;-93
2022/05/08 09:39:05;;;;;;;7.90;7.10;;;18.90;80.00;;;19.59;48.40;99286.59;4969351;28;123527;-93
2022/05/08 09:41:38;;;;;;;8.27;6.73;;;18.90;79.90;;;19.68;47.94;99278.84;4966962;28;123986;-93
2022/05/08 09:44:16;;;;;;;9.43;7.33;;;19.00;79.70;;;19.77;48.04;99275.84;4968107;28;114144;-96
2022/05/08 09:47:02;;;;;;;7.13;6.50;;;19.10;79.60;;;19.81;48.02;99277.56;4963566;28;113388;-94
2022/05/08 09:49:48;;;;;;;9.30;7.30;;;19.20;79.40;;;19.89;47.63;99286.19;4975453;28;123397;-94
2022/05/08 09:52:16;;;;;;;6.60;6.00;;;19.30;79.20;;;19.94;47.49;99278.28;4976074;28;122302;-91
2022/05/08 09:54:45;;;;;;;6.70;6.10;;;19.30;79.00;;;19.98;47.58;99278.38;4964318;28;113681;-94
2022/05/08 09:57:12;;;;;;;7.73;6.93;;;19.40;78.70;;;20.06;46.89;99282.97;4981762;28;114151;-95
2022/05/08 09:59:42;;;;;;;6.43;5.83;;;19.40;78.30;;;20.11;46.99;99276.28;4971309;28;123453;-95
2022/05/08 10:02:11;;;;;;;7.07;6.33;;;19.50;78.40;;;20.20;46.99;99277.72;4967984;28;124601;-93
2022/05/08 10:04:39;;;;;;;6.57;5.97;;;19.60;78.40;;;20.29;46.64;99271.91;4961839;28;114348;-91
2022/05/08 10:07:06;;;;;;;7.20;6.50;;;19.60;78.10;;;20.36;46.61;99276.84;4971959;28;113441;-95
2022/05/08 10:15:21;;;;;;;7.43;6.70;;;19.80;77.50;;;20.47;46.41;99275.09;4967132;28;114817;-92
2022/05/08 10:17:48;;;;;;;7.57;6.77;;;19.90;77.30;;;20.50;46.48;99265.94;4962648;28;113565;-92
2022/05/08 10:21:06;;;;;;;7.37;6.67;;;19.90;77.20;;;20.51;46.00;99259.94;4991216;28;122186;-94
2022/05/08 10:23:45;;;;;;;6.67;6.07;;;19.90;77.00;;;20.56;46.20;99264.50;4961646;28;124244;-93
2022/05/08 10:26:20;;;;;;;7.13;6.17;;;19.90;77.00;;;20.63;45.73;99266.63;4955048;28;114309;-94
2022/05/08 10:29:13;;;;;;;6.87;6.17;;;20.00;76.80;;;20.67;45.79;99271.16;4977453;28;114362;-94
2022/05/08 10:31:59;;;;;;;7.70;6.77;;;20.10;76.70;;;20.73;46.00;99258.44;4979049;28;124172;-94
2022/05/08 10:34:32;;;;;;;6.03;5.43;;;20.20;76.60;;;20.77;45.70;99264.16;4967145;28;124037;-93
2022/05/08 10:37:12;;;;;;;7.87;6.10;;;20.20;76.60;;;20.84;45.93;99257.84;4972506;28;112947;-94
2022/05/08 10:39:43;;;;;;;8.50;6.50;;;20.20;76.50;;;20.91;45.56;99252.38;4972444;28;112960;-91
2022/05/08 10:42:48;;;;;;;8.03;7.23;;;20.30;76.50;;;20.93;45.69;99259.25;4976896;28;123527;-93
2022/05/08 10:45:34;;;;;;;9.30;6.50;;;20.40;76.10;;;20.98;45.57;99251.69;4967261;28;122778;-94
2022/05/08 10:48:20;;;;;;;6.93;5.97;;;20.40;76.00;;;21.02;45.30;99242.16;4969611;28;114488;-93
2022/05/08 10:50:57;;;;;;;6.00;5.50;;;20.50;76.10;;;21.13;45.35;99254.41;5001265;28;113391;-94
2022/05/08 10:53:42;;;;;;;5.50;5.00;;;20.50;76.00;;;21.27;45.12;99251.06;4982360;28;123293;-94
2022/05/08 10:56:10;;;;;;;5.47;4.87;;;20.70;75.70;;;21.40;45.04;99240.50;4971162;28;121832;-95
2022/05/08 10:58:53;;;;;;;5.13;4.63;;;21.90;76.70;;;21.52;44.40;99247.91;4959709;28;113482;-92
2022/05/08 11:01:20;;;;;;;5.33;4.80;;;20.90;74.70;;;21.61;42.97;99235.22;5001423;28;112085;-96
2022/05/08 11:03:47;;;;;;;4.67;3.37;;;20.90;72.90;;;21.69;42.05;99235.38;4983635;28;122703;-93
2022/05/08 11:06:21;;;;;;;5.67;3.60;;;21.00;71.50;;;21.78;40.53;99235.91;4981880;28;123433;-94